Time;durP1;ratioP1;P1;durP2;ratioP2;P2;SDS_P1;SDS_P2;PMS_P1;PMS_P2;Temp;Humidity;BMP_temperature;BMP_pressure;BME280_temperature;BME280_humidity;BME280_pressure;Samples;Min_cycle;Max_cycle;Signal;HPM_P1;HPM_P2
2024/01/07 00:00:10;;;;;;;124.32;55.03;;;16.50;70.00;;;;;;4891099;28;89601;-79
2024/01/07 00:02:36;;;;;;;125.80;55.17;;;16.40;70.00;;;;;;4894050;28;88796;-79
2024/01/07 00:05:02;;;;;;;123.88;55.70;;;16.50;69.90;;;;;;4897681;28;89556;-79
2024/01/07 00:07:27;;;;;;;123.93;55.72;;;16.40;69.90;;;;;;4888162;28;91177;-79
2024/01/07 00:09:53;;;;;;;123.43;55.88;;;16.40;70.00;;;;;;4886674;28;90778;-78
2024/01/07 00:12:19;;;;;;;122.75;55.17;;;16.40;70.00;;;;;;4893447;28;90799;-79
2024/01/07 00:14:45;;;;;;;122.88;55.58;;;16.30;69.80;;;;;;4891949;28;89501;-79
2024/01/07 00:17:10;;;;;;;122.88;55.33;;;16.30;70.30;;;;;;4892575;28;91536;-79
2024/01/07 00:19:37;;;;;;;124.43;55.65;;;16.30;70.10;;;;;;4905018;28;89972;-80
2024/01/07 00:22:03;;;;;;;123.15;55.60;;;16.30;70.20;;;;;;4918148;28;90289;-79
2024/01/07 00:24:29;;;;;;;124.95;56.00;;;16.30;70.10;;;;;;4915925;28;90090;-80
2024/01/07 00:26:55;;;;;;;121.97;55.15;;;16.20;70.10;;;;;;4917252;28;89763;-79
2024/01/07 00:29:21;;;;;;;123.07;55.45;;;16.20;69.90;;;;;;4913495;28;89113;-79
2024/01/07 00:31:46;;;;;;;123.55;55.97;;;16.20;70.30;;;;;;4899657;28;89447;-78
2024/01/07 00:34:12;;;;;;;122.38;55.17;;;16.20;70.30;;;;;;4893474;28;91291;-78
2024/01/07 00:36:38;;;;;;;122.55;55.28;;;16.10;70.30;;;;;;4891937;28;90583;-78
2024/01/07 00:39:03;;;;;;;122.82;55.70;;;16.10;70.30;;;;;;4888024;28;90804;-88
2024/01/07 00:41:30;;;;;;;122.63;55.40;;;16.10;70.40;;;;;;4891215;28;88832;-88
2024/01/07 00:43:56;;;;;;;122.00;55.40;;;16.10;70.40;;;;;;4892855;28;90081;-87
2024/01/07 00:46:22;;;;;;;122.85;55.35;;;16.00;70.30;;;;;;4893736;28;89343;-88
2024/01/07 00:48:47;;;;;;;122.10;55.20;;;16.00;69.70;;;;;;4889710;28;89576;-86
2024/01/07 00:51:13;;;;;;;121.90;55.58;;;16.00;70.30;;;;;;4890204;28;88311;-88
2024/01/07 00:53:39;;;;;;;122.10;55.25;;;16.00;70.40;;;;;;4892478;28;89804;-87
2024/01/07 00:56:05;;;;;;;122.15;54.65;;;16.00;70.20;;;;;;4891279;28;90694;-88
2024/01/07 00:58:31;;;;;;;122.93;55.65;;;15.90;70.80;;;;;;4885752;28;90273;-88
2024/01/07 01:00:57;;;;;;;121.55;55.00;;;15.90;70.00;;;;;;4887899;28;89071;-88
2024/01/07 01:03:22;;;;;;;121.65;55.17;;;15.90;70.30;;;;;;4896844;28;89183;-86
2024/01/07 01:05:48;;;;;;;121.78;55.45;;;15.90;70.40;;;;;;4899172;28;89297;-85
2024/01/07 01:08:14;;;;;;;122.97;55.38;;;15.80;70.40;;;;;;4898608;28;88925;-86
2024/01/07 01:10:39;;;;;;;121.50;55.22;;;15.80;70.50;;;;;;4893205;28;89241;-87
2024/01/07 01:13:05;;;;;;;120.82;54.88;;;15.80;70.30;;;;;;4891491;28;89071;-85
2024/01/07 01:15:30;;;;;;;122.22;55.38;;;15.80;70.50;;;;;;4888902;28;89948;-88
2024/01/07 01:17:56;;;;;;;122.28;55.15;;;15.70;70.40;;;;;;4887025;28;89363;-86
2024/01/07 01:20:22;;;;;;;120.90;54.83;;;15.70;70.30;;;;;;4892375;28;88909;-86
2024/01/07 01:22:48;;;;;;;121.85;55.00;;;15.70;70.30;;;;;;4886934;28;90701;-87
2024/01/07 01:25:13;;;;;;;122.50;55.45;;;15.70;70.90;;;;;;4885436;28;90613;-84
2024/01/07 01:27:39;;;;;;;121.53;55.25;;;15.70;70.10;;;;;;4890742;28;89367;-88
2024/01/07 01:30:05;;;;;;;122.07;55.28;;;15.60;70.30;;;;;;4894342;28;88837;-85
2024/01/07 01:32:31;;;;;;;123.13;55.28;;;15.60;70.50;;;;;;4891542;28;92427;-87
2024/01/07 01:34:57;;;;;;;122.47;55.58;;;15.60;70.30;;;;;;4887773;28;90073;-87
2024/01/07 01:37:22;;;;;;;121.93;54.97;;;15.60;70.30;;;;;;4885365;28;89213;-87
2024/01/07 01:39:48;;;;;;;121.43;55.15;;;15.60;70.20;;;;;;4888399;28;90324;-86
2024/01/07 01:42:14;;;;;;;122.05;55.25;;;15.60;70.10;;;;;;4894706;28;89829;-86
2024/01/07 01:44:39;;;;;;;121.28;55.08;;;15.50;70.20;;;;;;4888645;28;89170;-85
2024/01/07 01:47:06;;;;;;;121.75;55.28;;;15.60;70.10;;;;;;4888885;28;91800;-86
2024/01/07 01:49:32;;;;;;;122.05;55.17;;;15.50;70.10;;;;;;4904752;23;90238;-37
2024/01/07 01:51:58;;;;;;;122.20;55.35;;;15.50;70.10;;;;;;4883107;28;90030;-37
2024/01/07 01:54:24;;;;;;;120.55;54.85;;;15.50;70.10;;;;;;4883648;28;90375;-38
2024/01/07 01:56:51;;;;;;;121.63;55.53;;;15.40;70.00;;;;;;4880661;28;90462;-38
2024/01/07 01:59:17;;;;;;;120.45;54.88;;;15.40;70.70;;;;;;4884216;28;89581;-37
2024/01/07 02:01:43;;;;;;;121.07;54.80;;;15.40;70.00;;;;;;4881040;28;89790;-38
2024/01/07 02:04:10;;;;;;;120.10;54.70;;;15.40;70.00;;;;;;4883365;28;89965;-38
2024/01/07 02:06:35;;;;;;;122.85;55.17;;;15.30;69.90;;;;;;4878955;28;89409;-38
2024/01/07 02:09:02;;;;;;;122.05;55.33;;;15.30;70.10;;;;;;4879122;23;92083;-72
2024/01/07 02:11:27;;;;;;;119.95;54.55;;;15.30;70.00;;;;;;4866445;28;89614;-73
2024/01/07 02:13:53;;;;;;;120.15;54.70;;;15.30;70.00;;;;;;4845616;28;89837;-72
2024/01/07 02:16:19;;;;;;;122.18;54.92;;;15.30;69.70;;;;;;4843338;28;88695;-71
2024/01/07 02:18:45;;;;;;;121.22;54.97;;;15.30;69.90;;;;;;4845721;28;93922;-71
2024/01/07 02:21:13;;;;;;;120.32;54.70;;;15.30;69.90;;;;;;4843927;28;89874;-72
2024/01/07 02:23:39;;;;;;;120.00;54.88;;;15.20;69.70;;;;;;4845272;28;89196;-72
2024/01/07 02:26:05;;;;;;;121.25;54.90;;;15.20;70.00;;;;;;4847014;29;90476;-71
2024/01/07 02:28:31;;;;;;;121.22;55.00;;;15.20;69.80;;;;;;4842264;28;87866;-72
2024/01/07 02:30:57;;;;;;;122.43;55.22;;;15.20;69.70;;;;;;4841960;28;89157;-71
2024/01/07 02:33:23;;;;;;;121.38;55.00;;;15.20;69.80;;;;;;4842748;28;89384;-71
2024/01/07 02:35:48;;;;;;;121.88;55.17;;;15.10;69.90;;;;;;4844761;28;90346;-70
2024/01/07 02:38:14;;;;;;;122.13;55.00;;;15.10;69.80;;;;;;4843088;28;89288;-72
2024/01/07 02:40:40;;;;;;;120.35;54.55;;;15.10;69.90;;;;;;4843384;28;90080;-72
2024/01/07 02:43:05;;;;;;;119.25;54.47;;;15.10;69.70;;;;;;4844314;28;90568;-72
2024/01/07 02:45:31;;;;;;;120.68;55.17;;;15.10;69.70;;;;;;4844706;29;89330;-72
2024/01/07 02:47:56;;;;;;;120.47;54.75;;;15.10;69.80;;;;;;4842136;28;89227;-72
2024/01/07 02:50:22;;;;;;;120.53;54.83;;;15.00;69.70;;;;;;4842096;28;89471;-70
2024/01/07 02:52:48;;;;;;;120.03;54.75;;;15.00;69.50;;;;;;4847281;28;91656;-71
2024/01/07 02:55:14;;;;;;;120.00;54.67;;;15.00;69.60;;;;;;4845084;28;89542;-70
2024/01/07 02:57:39;;;;;;;119.68;54.67;;;15.00;69.80;;;;;;4845903;28;90389;-72
2024/01/07 03:00:06;;;;;;;119.82;54.83;;;15.00;69.40;;;;;;4840789;28;93010;-71
2024/01/07 03:02:32;;;;;;;120.95;55.03;;;15.00;69.50;;;;;;4841544;28;90182;-71
2024/01/07 03:04:57;;;;;;;120.35;54.92;;;14.90;69.30;;;;;;4847601;28;89409;-70
2024/01/07 03:07:23;;;;;;;121.00;54.83;;;14.90;69.40;;;;;;4840312;28;89816;-70
2024/01/07 03:09:50;;;;;;;120.13;55.00;;;14.90;69.70;;;;;;4844593;28;90293;-72
2024/01/07 03:12:16;;;;;;;120.90;54.83;;;14.90;69.60;;;;;;4844086;28;89459;-72
2024/01/07 03:14:41;;;;;;;121.47;54.83;;;14.90;69.30;;;;;;4843359;28;89542;-72
2024/01/07 03:17:07;;;;;;;120.40;55.17;;;14.90;69.50;;;;;;4844253;28;89763;-71
2024/01/07 03:19:33;;;;;;;120.15;54.85;;;14.90;69.60;;;;;;4842100;28;90675;-71
2024/01/07 03:21:59;;;;;;;121.30;54.70;;;14.90;69.30;;;;;;4842770;28;92207;-70
2024/01/07 03:24:24;;;;;;;120.55;55.20;;;14.90;69.30;;;;;;4846195;29;91079;-73
2024/01/07 03:26:50;;;;;;;120.05;55.05;;;14.90;69.60;;;;;;4842826;28;88839;-73
2024/01/07 03:29:16;;;;;;;120.07;54.85;;;14.90;69.30;;;;;;4840820;28;90317;-72
2024/01/07 03:31:41;;;;;;;120.18;54.58;;;14.80;69.20;;;;;;4842340;28;90122;-71
2024/01/07 03:34:07;;;;;;;119.97;54.85;;;14.90;69.60;;;;;;4846455;28;89118;-70
2024/01/07 03:36:32;;;;;;;121.45;55.10;;;14.90;69.30;;;;;;4845440;28;90025;-71
2024/01/07 03:38:58;;;;;;;120.40;54.97;;;14.80;69.60;;;;;;4845411;28;89141;-73
2024/01/07 03:41:24;;;;;;;120.78;54.83;;;14.80;69.40;;;;;;4846283;29;89956;-72
2024/01/07 03:43:50;;;;;;;119.45;54.78;;;14.80;69.10;;;;;;4845244;28;89470;-72
2024/01/07 03:46:16;;;;;;;118.85;54.58;;;14.80;69.50;;;;;;4843447;28;91355;-72
2024/01/07 03:48:42;;;;;;;120.78;55.05;;;14.80;69.30;;;;;;4844825;28;89989;-72
2024/01/07 03:51:08;;;;;;;120.50;54.78;;;14.80;69.40;;;;;;4841124;28;89923;-71
2024/01/07 03:53:34;;;;;;;118.88;54.35;;;14.80;69.40;;;;;;4845541;28;91174;-73
2024/01/07 03:56:00;;;;;;;119.57;54.50;;;14.80;69.40;;;;;;4844007;28;89062;-72
2024/01/07 03:58:25;;;;;;;119.22;54.78;;;14.80;69.60;;;;;;4843776;28;89591;-71
2024/01/07 04:00:51;;;;;;;119.68;54.60;;;14.80;69.40;;;;;;4844762;28;89380;-72
2024/01/07 04:03:17;;;;;;;120.88;54.75;;;14.80;69.40;;;;;;4847280;28;89075;-73
2024/01/07 04:05:42;;;;;;;119.95;54.97;;;14.70;69.10;;;;;;4839750;29;90550;-73
2024/01/07 04:08:12;;;;;;;120.10;54.70;;;14.80;69.60;;;;;;4839168;29;89382;-72
2024/01/07 04:10:38;;;;;;;120.20;54.88;;;14.70;69.50;;;;;;4840915;28;89204;-72
2024/01/07 04:13:07;;;;;;;119.95;55.00;;;14.70;69.30;;;;;;4839196;28;90566;-71
2024/01/07 04:15:33;;;;;;;120.72;55.10;;;14.70;69.30;;;;;;4846125;28;89187;-72
2024/01/07 04:18:03;;;;;;;119.97;54.80;;;14.70;69.30;;;;;;4846324;28;89448;-72
2024/01/07 04:20:29;;;;;;;119.47;54.90;;;14.70;69.40;;;;;;4843781;28;89075;-73
2024/01/07 04:22:55;;;;;;;120.03;54.92;;;14.60;69.20;;;;;;4841224;28;90587;-72
2024/01/07 04:25:21;;;;;;;118.97;54.78;;;14.70;69.40;;;;;;4845900;28;90839;-74
2024/01/07 04:27:47;;;;;;;120.63;55.25;;;14.70;69.30;;;;;;4840513;28;89059;-72
2024/01/07 04:30:13;;;;;;;120.28;55.20;;;14.60;69.20;;;;;;4846775;28;89028;-70
2024/01/07 04:32:38;;;;;;;120.30;55.08;;;14.70;69.30;;;;;;4840050;28;89652;-73
2024/01/07 04:35:04;;;;;;;120.05;54.97;;;14.70;69.40;;;;;;4845514;28;89130;-70
2024/01/07 04:37:30;;;;;;;120.13;55.10;;;14.60;69.00;;;;;;4839030;28;90233;-73
2024/01/07 04:39:55;;;;;;;119.72;55.13;;;14.60;69.30;;;;;;4841430;28;89902;-72
2024/01/07 04:42:21;;;;;;;119.88;55.20;;;14.60;69.20;;;;;;4842287;28;89935;-72
2024/01/07 04:44:47;;;;;;;119.63;54.88;;;14.60;69.30;;;;;;4841953;28;89337;-71
2024/01/07 04:47:29;;;;;;;120.82;55.58;;;14.60;69.20;;;;;;4844006;28;89465;-71
2024/01/07 04:49:55;;;;;;;119.55;55.25;;;14.60;69.00;;;;;;4843891;29;88931;-71
2024/01/07 04:52:25;;;;;;;119.97;55.33;;;14.60;69.10;;;;;;4838245;28;90234;-72
2024/01/07 04:54:51;;;;;;;120.45;55.45;;;14.60;69.10;;;;;;4848341;28;88869;-71
2024/01/07 04:57:17;;;;;;;122.35;55.45;;;14.60;69.20;;;;;;4844311;28;89975;-73
2024/01/07 04:59:43;;;;;;;120.00;55.05;;;14.50;69.20;;;;;;4841252;28;88897;-72
2024/01/07 05:02:09;;;;;;;119.88;55.38;;;14.50;69.10;;;;;;4840863;28;90023;-71
2024/01/07 05:04:36;;;;;;;119.75;55.08;;;14.60;69.30;;;;;;4842533;28;90633;-73
2024/01/07 05:07:02;;;;;;;121.82;55.67;;;14.60;69.20;;;;;;4840204;28;89207;-72
2024/01/07 05:09:27;;;;;;;119.95;55.38;;;14.50;69.40;;;;;;4845835;28;88986;-71
2024/01/07 05:11:53;;;;;;;118.78;54.83;;;14.50;69.40;;;;;;4840302;28;89094;-70
2024/01/07 05:14:19;;;;;;;119.88;54.85;;;14.50;69.50;;;;;;4844873;28;89474;-73
2024/01/07 05:16:44;;;;;;;119.65;55.13;;;14.50;69.60;;;;;;4842863;29;89169;-72
2024/01/07 05:19:10;;;;;;;120.47;54.88;;;14.50;69.70;;;;;;4845382;28;88714;-70
2024/01/07 05:21:36;;;;;;;120.50;55.35;;;14.60;70.00;;;;;;4847875;28;89065;-72
2024/01/07 05:24:01;;;;;;;119.80;55.35;;;14.60;70.60;;;;;;4848218;28;90397;-72
2024/01/07 05:26:27;;;;;;;120.10;55.10;;;14.60;70.10;;;;;;4845917;28;90396;-70
2024/01/07 05:28:53;;;;;;;120.22;55.17;;;14.60;69.90;;;;;;4844710;28;92399;-71
2024/01/07 05:31:19;;;;;;;120.13;54.95;;;14.60;70.10;;;;;;4848188;28;89274;-71
2024/01/07 05:33:45;;;;;;;119.78;55.22;;;14.60;70.10;;;;;;4851804;28;89123;-72
2024/01/07 05:36:12;;;;;;;120.65;55.40;;;14.50;70.00;;;;;;4847265;28;89474;-72
2024/01/07 05:38:38;;;;;;;119.60;55.17;;;14.50;70.10;;;;;;4843636;28;90297;-71
2024/01/07 05:41:04;;;;;;;120.07;55.70;;;14.50;69.80;;;;;;4848684;28;88945;-69
2024/01/07 05:43:29;;;;;;;119.63;55.10;;;14.50;69.80;;;;;;4846998;28;90553;-71
2024/01/07 05:45:55;;;;;;;120.63;55.75;;;14.50;69.90;;;;;;4850910;28;90047;-71
2024/01/07 05:48:22;;;;;;;121.05;55.58;;;14.50;70.10;;;;;;4845044;28;89475;-72
2024/01/07 05:50:48;;;;;;;121.55;55.72;;;14.40;69.50;;;;;;4848591;28;90025;-72
2024/01/07 05:53:14;;;;;;;120.15;55.83;;;14.40;70.00;;;;;;4849152;28;90203;-71
2024/01/07 05:55:39;;;;;;;118.88;55.08;;;14.50;69.90;;;;;;4848256;29;89154;-71
2024/01/07 05:58:05;;;;;;;120.50;55.40;;;14.40;69.90;;;;;;4847465;28;90510;-72
2024/01/07 06:00:30;;;;;;;120.35;55.72;;;14.50;69.90;;;;;;4841317;28;93745;-71
2024/01/07 06:02:57;;;;;;;119.68;55.72;;;14.40;69.80;;;;;;4847773;28;89602;-72
2024/01/07 06:05:23;;;;;;;120.30;55.63;;;14.40;69.80;;;;;;4845541;28;94215;-69
2024/01/07 06:07:48;;;;;;;120.00;55.72;;;14.40;70.10;;;;;;4845301;29;91173;-71
2024/01/07 06:10:14;;;;;;;120.53;55.80;;;14.40;70.00;;;;;;4843849;28;88937;-72
2024/01/07 06:12:40;;;;;;;119.97;55.42;;;14.40;70.70;;;;;;4849167;28;89180;-71
2024/01/07 06:15:06;;;;;;;120.13;55.47;;;14.40;69.90;;;;;;4846001;28;89973;-70
2024/01/07 06:17:32;;;;;;;119.75;55.53;;;14.40;70.00;;;;;;4847914;28;90724;-71
2024/01/07 06:19:57;;;;;;;119.38;56.00;;;14.40;70.00;;;;;;4847269;28;89682;-71
2024/01/07 06:22:23;;;;;;;119.20;55.22;;;14.40;70.00;;;;;;4847403;28;89463;-69
2024/01/07 06:24:49;;;;;;;119.50;55.58;;;14.40;70.30;;;;;;4848229;28;90053;-72
2024/01/07 06:27:14;;;;;;;119.75;55.53;;;14.40;70.00;;;;;;4846587;28;89921;-71
2024/01/07 06:29:40;;;;;;;120.95;55.80;;;14.40;69.90;;;;;;4848790;28;89413;-69
2024/01/07 06:32:06;;;;;;;120.85;55.70;;;14.40;69.80;;;;;;4851701;29;88550;-71
2024/01/07 06:34:33;;;;;;;119.93;55.75;;;14.40;70.30;;;;;;4848735;28;89200;-70
2024/01/07 06:36:59;;;;;;;120.22;56.00;;;14.40;70.00;;;;;;4848603;28;89205;-68
2024/01/07 06:39:26;;;;;;;119.90;55.75;;;14.40;69.90;;;;;;4845116;28;90104;-71
2024/01/07 06:41:52;;;;;;;119.82;55.83;;;14.40;70.00;;;;;;4842818;28;89470;-72
2024/01/07 06:44:18;;;;;;;120.15;55.95;;;14.40;69.90;;;;;;4847899;28;89940;-71
2024/01/07 06:46:44;;;;;;;120.32;55.97;;;14.40;70.00;;;;;;4850769;29;88828;-71
2024/01/07 06:49:09;;;;;;;119.93;55.80;;;14.40;70.20;;;;;;4847808;28;92181;-69
2024/01/07 06:51:35;;;;;;;119.95;55.90;;;14.40;70.10;;;;;;4846388;28;90595;-69
2024/01/07 06:54:01;;;;;;;119.47;55.50;;;14.40;70.20;;;;;;4842314;28;89887;-69
2024/01/07 06:56:26;;;;;;;119.82;55.47;;;14.40;70.20;;;;;;4843370;28;88905;-70
2024/01/07 06:58:52;;;;;;;120.35;56.05;;;14.40;70.10;;;;;;4842233;28;89433;-71
2024/01/07 07:01:20;;;;;;;120.68;55.78;;;14.40;70.00;;;;;;4843243;28;90311;-71
2024/01/07 07:03:46;;;;;;;119.80;55.45;;;14.30;70.00;;;;;;4852616;28;90457;-71
2024/01/07 07:06:12;;;;;;;120.30;55.83;;;14.30;70.20;;;;;;4841360;29;90219;-69
2024/01/07 07:08:38;;;;;;;119.80;55.67;;;14.30;70.20;;;;;;4846759;28;88986;-73
2024/01/07 07:11:04;;;;;;;120.38;55.97;;;14.30;70.80;;;;;;4844647;28;89565;-71
2024/01/07 07:13:29;;;;;;;120.85;55.90;;;14.30;70.10;;;;;;4846574;28;89072;-71
2024/01/07 07:15:55;;;;;;;120.85;55.72;;;14.30;70.10;;;;;;4846814;28;89530;-72
2024/01/07 07:18:21;;;;;;;120.28;55.55;;;14.30;70.30;;;;;;4843471;28;91999;-72
2024/01/07 07:20:47;;;;;;;119.68;55.58;;;14.30;70.20;;;;;;4845693;28;90318;-72
2024/01/07 07:23:13;;;;;;;120.60;55.28;;;14.20;70.10;;;;;;4847175;28;89554;-71
2024/01/07 07:25:39;;;;;;;119.90;55.70;;;14.20;70.00;;;;;;4847254;28;91489;-71
2024/01/07 07:28:05;;;;;;;120.68;55.85;;;14.20;70.20;;;;;;4847713;29;91035;-71
2024/01/07 07:30:30;;;;;;;119.72;55.88;;;14.20;70.00;;;;;;4847197;28;89004;-71
2024/01/07 07:32:56;;;;;;;119.82;55.70;;;14.20;69.90;;;;;;4843541;28;91130;-70
2024/01/07 07:35:21;;;;;;;120.07;55.80;;;14.20;70.10;;;;;;4845767;28;89557;-72
2024/01/07 07:37:47;;;;;;;120.05;56.03;;;14.10;69.90;;;;;;4844102;29;89016;-70
2024/01/07 07:40:13;;;;;;;120.50;55.97;;;14.20;70.00;;;;;;4848646;28;89183;-71
2024/01/07 07:42:39;;;;;;;119.10;55.55;;;14.20;69.90;;;;;;4841388;28;90305;-72
2024/01/07 07:45:06;;;;;;;119.38;55.25;;;14.10;69.80;;;;;;4845019;28;89263;-70
2024/01/07 07:47:31;;;;;;;119.25;55.58;;;14.20;70.60;;;;;;4840862;28;90230;-70
2024/01/07 07:49:57;;;;;;;120.32;56.13;;;14.20;69.80;;;;;;4840437;28;89732;-73
2024/01/07 07:52:25;;;;;;;119.28;55.50;;;14.10;69.80;;;;;;4839757;28;91216;-69
2024/01/07 07:54:52;;;;;;;119.80;55.55;;;14.20;69.80;;;;;;4843687;28;90567;-71
2024/01/07 07:57:20;;;;;;;120.15;55.45;;;14.10;69.80;;;;;;4838875;28;90157;-71
2024/01/07 07:59:46;;;;;;;119.25;55.35;;;14.10;69.70;;;;;;4844940;28;89212;-71
2024/01/07 08:02:12;;;;;;;119.85;55.83;;;14.10;69.70;;;;;;4841860;28;89708;-70
2024/01/07 08:04:41;;;;;;;119.22;55.90;;;14.10;69.60;;;;;;4831835;28;89492;-69
2024/01/07 08:07:07;;;;;;;120.43;55.85;;;14.10;69.50;;;;;;4837810;28;89050;-70
2024/01/07 08:09:32;;;;;;;122.05;55.60;;;14.10;69.50;;;;;;4839464;28;89173;-70
2024/01/07 08:11:58;;;;;;;119.28;55.70;;;14.10;69.50;;;;;;4841158;28;91696;-72
2024/01/07 08:14:24;;;;;;;119.68;55.38;;;14.10;69.60;;;;;;4841134;28;89291;-71
2024/01/07 08:16:49;;;;;;;122.70;56.08;;;14.10;69.60;;;;;;4842605;28;90901;-68
2024/01/07 08:19:15;;;;;;;119.50;55.72;;;14.10;69.60;;;;;;4846234;28;90267;-70
2024/01/07 08:21:41;;;;;;;120.63;55.70;;;14.10;69.40;;;;;;4839802;28;90931;-69
2024/01/07 08:24:06;;;;;;;121.53;56.58;;;14.10;69.40;;;;;;4843016;28;89178;-70
2024/01/07 08:26:32;;;;;;;120.25;56.17;;;14.10;69.30;;;;;;4839789;28;90285;-70
2024/01/07 08:28:58;;;;;;;120.18;55.70;;;14.10;69.40;;;;;;4836585;28;90102;-72
2024/01/07 08:31:23;;;;;;;119.72;55.40;;;14.10;69.20;;;;;;4842674;28;89653;-69
2024/01/07 08:33:49;;;;;;;123.13;55.60;;;14.10;69.20;;;;;;4838911;28;89632;-69
2024/01/07 08:36:15;;;;;;;120.53;55.67;;;14.10;69.30;;;;;;4837820;28;89666;-69
2024/01/07 08:38:40;;;;;;;120.82;55.65;;;14.10;69.30;;;;;;4841735;28;89464;-71
2024/01/07 08:41:07;;;;;;;119.63;55.65;;;14.00;69.30;;;;;;4843225;28;90369;-71
2024/01/07 08:43:33;;;;;;;120.97;55.83;;;14.00;69.10;;;;;;4840547;28;89988;-70
2024/01/07 08:45:58;;;;;;;121.32;56.22;;;14.00;69.10;;;;;;4834873;28;90876;-70
2024/01/07 08:48:24;;;;;;;118.75;55.17;;;14.00;69.00;;;;;;4834617;28;90491;-69
2024/01/07 08:50:50;;;;;;;119.30;55.45;;;14.00;69.00;;;;;;4837406;28;89859;-76
2024/01/07 08:53:16;;;;;;;121.55;56.25;;;14.00;69.20;;;;;;4834636;28;89379;-71
2024/01/07 08:55:42;;;;;;;120.82;55.67;;;14.20;69.20;;;;;;4835572;28;90040;-70
2024/01/07 08:58:07;;;;;;;119.40;56.05;;;14.30;68.70;;;;;;4845269;28;88906;-70
2024/01/07 09:00:33;;;;;;;120.85;55.60;;;14.40;68.10;;;;;;4843791;28;89908;-70
2024/01/07 09:02:59;;;;;;;119.28;55.90;;;14.40;67.80;;;;;;4864673;23;91829;-77
2024/01/07 09:05:24;;;;;;;123.22;55.60;;;14.40;67.90;;;;;;4877144;28;90701;-74
2024/01/07 09:07:50;;;;;;;119.72;55.85;;;14.40;67.70;;;;;;4883112;28;90307;-87
2024/01/07 09:10:16;;;;;;;121.72;55.88;;;14.40;67.80;;;;;;4882492;28;89951;-77
2024/01/07 09:12:42;;;;;;;120.82;56.20;;;14.40;67.70;;;;;;4884103;28;90490;-76
2024/01/07 09:15:07;;;;;;;123.63;56.25;;;14.40;67.90;;;;;;4886423;28;90315;-78
2024/01/07 09:17:36;;;;;;;123.38;56.50;;;14.40;68.30;;;;;;4882542;28;89495;-77
2024/01/07 09:20:04;;;;;;;128.13;56.78;;;14.30;68.20;;;;;;4879716;28;90252;-77
2024/01/07 09:22:30;;;;;;;121.93;56.63;;;14.30;68.50;;;;;;4883806;28;89911;-77
2024/01/07 09:24:56;;;;;;;127.05;56.90;;;14.30;68.20;;;;;;4886608;28;89456;-77
2024/01/07 09:27:21;;;;;;;120.75;56.10;;;14.30;67.80;;;;;;4886062;28;89375;-76
2024/01/07 09:29:47;;;;;;;121.05;56.35;;;14.40;67.80;;;;;;4895248;28;92161;-78
2024/01/07 09:32:12;;;;;;;122.47;56.25;;;14.40;67.70;;;;;;4885997;28;90240;-76
2024/01/07 09:34:38;;;;;;;121.60;56.60;;;14.40;67.50;;;;;;4886450;28;90725;-76
2024/01/07 09:37:04;;;;;;;126.15;56.83;;;14.50;67.60;;;;;;4886646;28;89730;-76
2024/01/07 09:39:29;;;;;;;125.03;56.80;;;14.50;67.40;;;;;;4875605;28;89835;-75
2024/01/07 09:41:55;;;;;;;129.65;60.10;;;14.60;67.40;;;;;;4866190;28;89853;-75
2024/01/07 09:44:21;;;;;;;131.65;64.13;;;14.60;67.10;;;;;;4865293;28;93601;-76
2024/01/07 09:46:51;;;;;;;132.43;63.78;;;14.60;66.90;;;;;;4869341;28;88572;-75
2024/01/07 09:49:17;;;;;;;131.77;62.13;;;14.60;67.10;;;;;;4868571;28;90601;-77
2024/01/07 09:51:47;;;;;;;130.27;61.70;;;14.60;67.00;;;;;;4867707;28;89806;-77
2024/01/07 09:54:16;;;;;;;131.68;61.95;;;14.60;66.70;;;;;;4864566;28;90319;-77
2024/01/07 09:56:50;;;;;;;128.85;61.17;;;14.70;66.90;;;;;;4865759;28;90063;-79
2024/01/07 09:59:17;;;;;;;130.63;60.85;;;14.70;66.30;;;;;;4861131;28;90365;-79
2024/01/07 10:01:45;;;;;;;128.95;60.80;;;14.90;66.50;;;;;;4866892;28;89600;-79
2024/01/07 10:04:11;;;;;;;128.05;60.00;;;14.90;66.20;;;;;;4863015;28;89821;-78
2024/01/07 10:06:37;;;;;;;128.30;59.65;;;14.90;66.10;;;;;;4867702;28;89475;-80
2024/01/07 10:09:06;;;;;;;130.05;60.03;;;15.00;66.20;;;;;;4866239;28;90783;-79
2024/01/07 10:11:32;;;;;;;126.65;59.30;;;15.00;66.00;;;;;;4865291;28;89770;-79
2024/01/07 10:13:58;;;;;;;130.68;59.13;;;15.10;65.90;;;;;;4870464;28;89583;-79
2024/01/07 10:16:23;;;;;;;128.30;58.95;;;15.10;65.80;;;;;;4871304;28;89590;-79
2024/01/07 10:18:49;;;;;;;129.27;58.90;;;15.10;65.90;;;;;;4870573;28;90410;-79
2024/01/07 10:21:14;;;;;;;127.90;58.80;;;15.20;66.30;;;;;;4868708;28;90363;-78
2024/01/07 10:23:41;;;;;;;130.65;59.67;;;15.20;65.60;;;;;;4867965;28;89425;-78
2024/01/07 10:26:06;;;;;;;125.90;59.10;;;15.10;65.40;;;;;;4866095;28;89943;-79
2024/01/07 10:28:32;;;;;;;126.60;58.70;;;15.10;65.50;;;;;;4871084;28;90031;-79
2024/01/07 10:30:58;;;;;;;126.57;58.47;;;15.10;65.50;;;;;;4869754;28;90197;-79
2024/01/07 10:33:23;;;;;;;128.35;58.63;;;15.10;65.80;;;;;;4869165;28;90815;-79
2024/01/07 10:36:00;;;;;;;129.90;59.20;;;15.20;65.50;;;;;;4869308;28;88919;-79
2024/01/07 10:38:26;;;;;;;125.78;58.42;;;15.20;65.30;;;;;;4855849;28;91695;-71
2024/01/07 10:40:55;;;;;;;129.57;59.13;;;15.20;65.60;;;;;;4868105;28;90500;-80
2024/01/07 10:43:20;;;;;;;126.88;58.55;;;15.30;65.70;;;;;;4870668;28;90886;-81
2024/01/07 10:45:50;;;;;;;141.00;69.85;;;15.40;66.40;;;;;;4870155;28;90129;-80
2024/01/07 10:48:19;;;;;;;152.82;80.22;;;15.40;65.40;;;;;;4866646;28;91059;-80
2024/01/07 10:50:50;;;;;;;157.48;79.00;;;15.40;65.30;;;;;;4867493;28;91816;-80
2024/01/07 10:53:20;;;;;;;148.73;76.15;;;15.40;65.10;;;;;;4869097;28;90981;-80
2024/01/07 10:56:07;;;;;;;148.30;75.63;;;15.40;65.10;;;;;;4877098;28;89958;-79
2024/01/07 10:58:35;;;;;;;145.68;73.75;;;15.40;65.60;;;;;;4895737;28;90073;-80
2024/01/07 11:01:03;;;;;;;146.00;73.07;;;15.40;65.50;;;;;;4894891;28;91350;-80
2024/01/07 11:03:59;;;;;;;141.95;70.30;;;15.40;66.20;;;;;;4890582;28;89013;-80
2024/01/07 11:06:52;;;;;;;156.73;84.25;;;15.40;66.60;;;;;;4871741;28;89075;-81
2024/01/07 11:09:26;;;;;;;169.35;91.00;;;15.50;66.30;;;;;;4886504;23;92879;-37
2024/01/07 11:11:52;;;;;;;159.57;86.47;;;15.50;66.90;;;;;;4875825;28;90387;-36
2024/01/07 11:14:52;;;;;;;156.93;84.53;;;15.50;67.20;;;;;;4880340;28;90546;-37
2024/01/07 11:17:39;;;;;;;159.73;82.50;;;15.60;67.30;;;;;;4873433;28;88805;-38
2024/01/07 11:20:11;;;;;;;157.15;79.85;;;15.70;66.80;;;;;;4879385;28;89649;-38
2024/01/07 11:22:38;;;;;;;151.88;78.53;;;15.80;67.30;;;;;;4874214;28;89878;-37
2024/01/07 11:25:31;;;;;;;154.05;77.63;;;15.80;67.20;;;;;;4874093;28;90368;-37
2024/01/07 11:28:01;;;;;;;150.63;74.80;;;15.80;67.20;;;;;;4877000;28;89139;-38
2024/01/07 11:30:27;;;;;;;146.80;74.47;;;15.70;67.70;;;;;;4873530;28;89340;-39
2024/01/07 11:33:00;;;;;;;151.32;71.88;;;15.70;67.90;;;;;;4875299;28;89535;-38
2024/01/07 11:35:58;;;;;;;154.50;72.45;;;15.80;68.50;;;;;;4876998;28;90287;-38
2024/01/07 11:38:24;;;;;;;147.68;70.22;;;15.80;68.80;;;;;;4872652;28;89542;-38
2024/01/07 11:40:51;;;;;;;147.68;69.00;;;15.70;69.10;;;;;;4878961;28;89855;-38
2024/01/07 11:43:17;;;;;;;142.25;69.65;;;15.70;69.30;;;;;;4875735;28;90533;-38
2024/01/07 11:45:43;;;;;;;145.60;69.63;;;15.70;70.10;;;;;;4875167;28;89760;-38
2024/01/07 11:48:09;;;;;;;150.15;69.97;;;15.70;68.80;;;;;;4877126;28;89675;-35
2024/01/07 11:50:35;;;;;;;150.27;68.63;;;15.70;69.40;;;;;;4875300;28;91550;-35
2024/01/07 11:53:01;;;;;;;150.05;68.65;;;15.70;69.20;;;;;;4894600;23;88687;-67
2024/01/07 11:55:28;;;;;;;148.43;68.25;;;15.60;68.70;;;;;;4891797;28;95734;-69
2024/01/07 11:57:55;;;;;;;153.15;67.90;;;15.70;69.60;;;;;;4898689;28;91514;-68
2024/01/07 12:00:21;;;;;;;147.38;67.43;;;15.70;69.80;;;;;;4890338;28;92229;-69
2024/01/07 12:02:47;;;;;;;149.13;67.28;;;15.80;69.90;;;;;;4901030;28;90647;-72
2024/01/07 12:05:15;;;;;;;149.27;66.03;;;15.90;69.50;;;;;;4878000;28;90366;-71
2024/01/07 12:07:42;;;;;;;141.73;66.97;;;15.90;69.00;;;;;;4883391;28;89182;-72
2024/01/07 12:10:11;;;;;;;143.23;66.18;;;15.90;68.60;;;;;;4887600;28;90238;-70
2024/01/07 12:12:39;;;;;;;139.45;65.53;;;16.00;68.40;;;;;;4884306;28;89194;-68
2024/01/07 12:15:07;;;;;;;142.48;65.90;;;16.00;68.10;;;;;;4882042;28;89672;-70